Silver Bergen — LAHO6 — position and weather

sailwx.info

Track history (hours):
 
Tides and Currents Weather Stations Pressure Air Temp Water Temp Dewpoint Dewpoint Depression Visibility Wind Speed Wind Dir Waves Ship Positions

Silver Bergen

Last reported at 2017-Nov-19 02:01 UTC. Time now 2017-Nov-19 05:08 UTC.
Position N 52°45' E 002°03'.

Length 98 m; draft 5 m.

Type: Cargo ship. MMSI: 257951000.

Date/timePositionNaut miles runAvg speedWind from/ knotsBaromVisibWave heightAir tempDewpointWater temp
2017-Nov-19 02:01N 52°45' E 002°03'012.6
2017-Nov-19 02:00N 52°45' E 002°03'612.5
2017-Nov-19 01:30N 52°48' E 001°54'612.3
2017-Nov-19 01:01N 52°51' E 001°45'612.1
2017-Nov-19 00:30N 52°55' E 001°38'612.3
2017-Nov-19 00:01N 52°60' E 001°31'612.7
2017-Nov-18 23:30N 53°04' E 001°24'612.9
2017-Nov-18 23:01N 53°09' E 001°17'713.0
2017-Nov-18 22:30N 53°14' E 001°10'5112.7
2017-Nov-18 18:30N 53°53' E 000°15'713.2
2017-Nov-18 18:00N 53°59' E 000°10'713.1
2017-Nov-18 17:30N 54°05' E 000°05'713.4
2017-Nov-18 17:00N 54°11' W 000°00'713.4
2017-Nov-18 16:30N 54°16' W 000°07'713.3
2017-Nov-18 16:00N 54°22' W 000°13'713.6
2017-Nov-18 15:30N 54°27' W 000°20'714.0
2017-Nov-18 15:01N 54°33' W 000°26'2515.2
2017-Nov-18 13:24N 54°54' W 000°49'614.9
2017-Nov-18 13:00N 54°59' W 000°55'714.9
2017-Nov-18 12:30N 55°05' W 001°02'714.8
2017-Nov-18 12:01N 55°11' W 001°09'714.6
2017-Nov-18 11:30N 55°18' W 001°14'714.5
2017-Nov-18 11:00N 55°25' W 001°17'1214.0
2017-Nov-18 10:09N 55°36' W 001°24'213.7
2017-Nov-18 10:00N 55°38' W 001°26'813.2
2017-Nov-18 09:24N 55°45' W 001°32'613.4
2017-Nov-18 08:56N 55°51' W 001°37'813.4
2017-Nov-18 08:19N 55°58' W 001°43'513.6
2017-Nov-18 07:58N 56°02' W 001°47'613.8
2017-Nov-18 07:31N 56°08' W 001°52'713.8
2017-Nov-18 07:01N 56°14' W 001°57'713.8
2017-Nov-18 06:30N 56°21' W 002°03'713.5
2017-Nov-18 06:00N 56°27' W 002°07'713.4
2017-Nov-18 05:30N 56°33' W 002°05'713.4
2017-Nov-18 04:58N 56°41' W 002°02'1613.6
2017-Nov-18 03:48N 56°56' W 001°56'413.9
2017-Nov-18 03:30N 56°60' W 001°54'714.2
2017-Nov-18 03:00N 57°07' W 001°51'714.3
2017-Nov-18 02:30N 57°14' W 001°47'714.5
2017-Nov-18 02:00N 57°21' W 001°44'714.5
2017-Nov-18 01:30N 57°28' W 001°40'815.1
2017-Nov-18 01:00N 57°35' W 001°43'815.6
2017-Nov-18 00:30N 57°42' W 001°48'815.0
2017-Nov-18 00:00N 57°49' W 001°56'  
2017-Nov-13 00:28N 52°38' E 003°47'3 7.0
2017-Nov-13 00:00N 52°36' E 003°52'3 6.3
2017-Nov-12 23:29N 52°34' E 003°56'3 6.3
2017-Nov-12 23:00N 52°33' E 004°01'3 7.0
2017-Nov-12 22:30N 52°32' E 004°06'4 7.4
2017-Nov-12 22:00N 52°31' E 004°12'4 7.4
2017-Nov-12 21:30N 52°30' E 004°18'4 7.8
2017-Nov-12 21:00N 52°30' E 004°24'3 6.7
2017-Nov-12 20:30N 52°29' E 004°30'4 7.3
2017-Nov-12 20:00N 52°28' E 004°36'1 1.9
2017-Nov-12 19:30N 52°28' E 004°37'2 3.6
2017-Nov-12 19:00N 52°28' E 004°40'0 0.0
2017-Nov-12 18:28N 52°28' E 004°40'0 0.0
2017-Nov-12 17:58N 52°28' E 004°40'0 0.0
2017-Nov-12 17:28N 52°28' E 004°40'0 0.0
2017-Nov-12 16:58N 52°28' E 004°40'0 0.0
2017-Nov-12 16:28N 52°28' E 004°40'0 0.0
2017-Nov-12 15:58N 52°28' E 004°40'0 0.0
2017-Nov-12 15:28N 52°28' E 004°40'0 0.0
2017-Nov-12 14:58N 52°28' E 004°40'0 0.0
2017-Nov-12 14:28N 52°28' E 004°40'0 0.0
2017-Nov-12 13:58N 52°28' E 004°40'0 0.0
2017-Nov-12 13:25N 52°28' E 004°40'0 0.0
2017-Nov-12 12:58N 52°28' E 004°40'0 0.0
2017-Nov-12 12:28N 52°28' E 004°40'0 0.0
2017-Nov-12 11:58N 52°28' E 004°40'0 0.0
2017-Nov-12 11:28N 52°28' E 004°40'0 0.0
2017-Nov-12 10:55N 52°28' E 004°40'0 0.0
2017-Nov-12 10:28N 52°28' E 004°40'0 0.0
2017-Nov-12 09:58N 52°28' E 004°40'0 0.0
2017-Nov-12 09:28N 52°28' E 004°40'0 0.0
2017-Nov-12 08:58N 52°28' E 004°40'0 0.0
2017-Nov-12 08:28N 52°28' E 004°40'0 0.0
2017-Nov-12 07:58N 52°28' E 004°40'0 0.0
2017-Nov-12 07:28N 52°28' E 004°40'0 0.0
2017-Nov-12 06:55N 52°28' E 004°40'0 0.0
2017-Nov-12 06:28N 52°28' E 004°40'0 0.0
2017-Nov-12 05:58N 52°28' E 004°40'0 0.0
2017-Nov-12 05:25N 52°28' E 004°40'0 0.0
2017-Nov-12 04:58N 52°28' E 004°40'0 0.0
2017-Nov-12 04:28N 52°28' E 004°40'0 0.0
2017-Nov-12 03:58N 52°28' E 004°40'0 0.0
2017-Nov-12 03:28N 52°28' E 004°40'0 0.0
2017-Nov-12 02:58N 52°28' E 004°40'0 0.0
2017-Nov-12 02:25N 52°28' E 004°40'0 0.0
2017-Nov-12 01:58N 52°28' E 004°40'0 0.0
2017-Nov-12 01:28N 52°28' E 004°40'0 0.0
2017-Nov-12 00:58N 52°28' E 004°40'0 0.0
2017-Nov-12 00:28N 52°28' E 004°40'0 0.0
2017-Nov-11 23:58N 52°28' E 004°40'0 0.0
2017-Nov-11 23:25N 52°28' E 004°40'0 0.0
2017-Nov-11 22:58N 52°28' E 004°40'0 0.0
2017-Nov-11 22:28N 52°28' E 004°40'0 0.0
2017-Nov-11 21:58N 52°28' E 004°40'0 0.0
2017-Nov-11 21:28N 52°28' E 004°40'0 0.0
2017-Nov-11 20:58N 52°28' E 004°40'0 0.0
2017-Nov-11 20:25N 52°28' E 004°40'0 0.0
2017-Nov-11 19:28N 52°28' E 004°40'0 0.0
2017-Nov-11 18:58N 52°28' E 004°40'0 0.0
2017-Nov-11 18:28N 52°28' E 004°40'0 0.0
2017-Nov-11 17:58N 52°28' E 004°40'0 0.0
2017-Nov-11 17:28N 52°28' E 004°40'0 0.0
2017-Nov-11 16:58N 52°28' E 004°40'0 0.0
2017-Nov-11 16:25N 52°28' E 004°40'0 0.0
2017-Nov-11 15:58N 52°28' E 004°40'0 0.0
2017-Nov-11 15:28N 52°28' E 004°40'0 0.0
2017-Nov-11 14:58N 52°28' E 004°40'0 0.0
2017-Nov-11 14:28N 52°28' E 004°40'0 0.0
2017-Nov-11 13:58N 52°28' E 004°40'0 0.0
2017-Nov-11 13:28N 52°28' E 004°40'0 0.0
2017-Nov-11 12:55N 52°28' E 004°40'0 0.0
2017-Nov-11 12:19N 52°28' E 004°40'0 0.0
2017-Nov-11 11:58N 52°28' E 004°40'0 0.0
2017-Nov-11 11:28N 52°28' E 004°40'0 0.0
2017-Nov-11 10:58N 52°28' E 004°40'0 0.0
2017-Nov-11 10:28N 52°28' E 004°40'0 0.0
2017-Nov-11 09:58N 52°28' E 004°40'0 0.0
2017-Nov-11 09:28N 52°28' E 004°40'0 0.0
2017-Nov-11 08:58N 52°28' E 004°40'0 0.0
2017-Nov-11 08:28N 52°28' E 004°40'0 0.0
2017-Nov-11 07:58N 52°28' E 004°40'0 0.0
2017-Nov-11 07:28N 52°28' E 004°40'0 0.0
2017-Nov-11 06:58N 52°28' E 004°40'0 0.0
2017-Nov-11 06:28N 52°28' E 004°40'0 0.0
2017-Nov-11 05:58N 52°28' E 004°40'0 0.0
2017-Nov-11 05:28N 52°28' E 004°40'0 0.0
2017-Nov-11 04:58N 52°28' E 004°40'0 0.0
2017-Nov-11 04:28N 52°28' E 004°40'0 0.0
2017-Nov-11 03:58N 52°28' E 004°40'0 0.0
2017-Nov-11 03:28N 52°28' E 004°40'0 0.0
2017-Nov-11 02:58N 52°28' E 004°40'0 0.0
2017-Nov-11 02:28N 52°28' E 004°40'0 0.0
2017-Nov-11 01:58N 52°28' E 004°40'0 0.0
2017-Nov-11 01:28N 52°28' E 004°40'0 0.0
2017-Nov-11 00:58N 52°28' E 004°40'0 0.0
2017-Nov-11 00:28N 52°28' E 004°40'0 0.0
2017-Nov-10 23:58N 52°28' E 004°40'0 0.0
2017-Nov-10 23:28N 52°28' E 004°40'0 0.3
2017-Nov-10 23:00N 52°28' E 004°40'2 4.2
2017-Nov-10 22:30N 52°28' E 004°36'0 0.0
2017-Nov-10 22:01N 52°28' E 004°36'2 4.9
2017-Nov-10 21:30N 52°28' E 004°32'510.7
2017-Nov-10 21:00N 52°29' E 004°24'3 5.5
2017-Nov-10 20:31N 52°27' E 004°20'3 5.6
2017-Nov-10 20:00N 52°29' E 004°16'510.9
2017-Nov-10 19:30N 52°29' E 004°07'713.6
2017-Nov-10 19:00N 52°27' E 003°56'713.4
2017-Nov-10 18:30N 52°26' E 003°45'6913.4
2017-Nov-10 13:21N 52°46' E 001°57'515.8
2017-Nov-10 13:00N 52°49' E 001°49'816.1
2017-Nov-10 12:30N 52°54' E 001°39'816.1
2017-Nov-10 12:00N 53°00' E 001°31'815.5
2017-Nov-10 11:30N 53°06' E 001°22'815.5
2017-Nov-10 11:00N 53°12' E 001°13'5414.9
2017-Nov-10 07:21N 53°54' E 000°15'615.1
2017-Nov-10 06:59N 53°59' E 000°11'714.7
2017-Nov-10 06:30N 54°05' E 000°06'714.4
2017-Nov-10 06:00N 54°11' W 000°01'714.0
2017-Nov-10 05:30N 54°17' W 000°07'713.6
2017-Nov-10 05:00N 54°23' W 000°14'713.2
2017-Nov-10 04:31N 54°28' W 000°21'713.1
2017-Nov-10 04:00N 54°33' W 000°27'1712.9
2017-Nov-10 02:41N 54°46' W 000°46'212.8
2017-Nov-10 02:30N 54°48' W 000°49'612.4
2017-Nov-10 02:00N 54°53' W 000°55'912.7
2017-Nov-10 01:19N 55°01' W 000°60'412.6
2017-Nov-10 01:00N 55°05' W 001°02'912.6
2017-Nov-10 00:18N 55°14' W 001°08'412.6
2017-Nov-09 23:59N 55°18' W 001°10'612.7
2017-Nov-09 23:30N 55°23' W 001°13'912.4
2017-Nov-09 22:48N 55°32' W 001°18'512.7
2017-Nov-09 22:26N 55°36' W 001°19'612.6
2017-Nov-09 21:58N 55°42' W 001°20'7412.9
2017-Nov-09 16:17N 56°55' W 001°38'714.0
2017-Nov-09 15:48N 57°02' W 001°39'414.1
2017-Nov-09 15:29N 57°06' W 001°40'714.3
2017-Nov-09 14:59N 57°13' W 001°41'1014.2
2017-Nov-09 14:17N 57°23' W 001°40'414.2
2017-Nov-09 14:00N 57°27' W 001°39'714.1
2017-Nov-09 13:30N 57°34' W 001°38'713.4
2017-Nov-09 13:00N 57°41' W 001°37'713.4
2017-Nov-09 12:31N 57°46' W 001°45'813.1
2017-Nov-09 11:56N 57°52' W 001°54'4713.0
2017-Nov-09 08:20N 58°30' W 002°45'410.7
2017-Nov-09 07:57N 58°34' W 002°43'511.1
2017-Nov-09 07:30N 58°38' W 002°39'  
Track history (hours):
 
Tides and Currents Weather Stations Pressure Air Temp Water Temp Dewpoint Dewpoint Depression Visibility Wind Speed Wind Dir Waves Ship Positions

Silver Bergen

Last reported at 2017-Nov-19 02:01 UTC. Time now 2017-Nov-19 05:08 UTC.
Position N 52°45' E 002°03'.

Length 98 m; draft 5 m.

Type: Cargo ship. MMSI: 257951000.

Date/timePositionNaut miles runAvg speedWind from/ knotsBaromVisibWave heightAir tempDewpointWater temp
2017-Nov-19 02:01N 52°45' E 002°03'012.6
2017-Nov-19 02:00N 52°45' E 002°03'612.5
2017-Nov-19 01:30N 52°48' E 001°54'612.3
2017-Nov-19 01:01N 52°51' E 001°45'612.1
2017-Nov-19 00:30N 52°55' E 001°38'612.3
2017-Nov-19 00:01N 52°60' E 001°31'612.7
2017-Nov-18 23:30N 53°04' E 001°24'612.9
2017-Nov-18 23:01N 53°09' E 001°17'713.0
2017-Nov-18 22:30N 53°14' E 001°10'5112.7
2017-Nov-18 18:30N 53°53' E 000°15'713.2
2017-Nov-18 18:00N 53°59' E 000°10'713.1
2017-Nov-18 17:30N 54°05' E 000°05'713.4
2017-Nov-18 17:00N 54°11' W 000°00'713.4
2017-Nov-18 16:30N 54°16' W 000°07'713.3
2017-Nov-18 16:00N 54°22' W 000°13'713.6
2017-Nov-18 15:30N 54°27' W 000°20'714.0
2017-Nov-18 15:01N 54°33' W 000°26'2515.2
2017-Nov-18 13:24N 54°54' W 000°49'614.9
2017-Nov-18 13:00N 54°59' W 000°55'714.9
2017-Nov-18 12:30N 55°05' W 001°02'714.8
2017-Nov-18 12:01N 55°11' W 001°09'714.6
2017-Nov-18 11:30N 55°18' W 001°14'714.5
2017-Nov-18 11:00N 55°25' W 001°17'1214.0
2017-Nov-18 10:09N 55°36' W 001°24'213.7
2017-Nov-18 10:00N 55°38' W 001°26'813.2
2017-Nov-18 09:24N 55°45' W 001°32'613.4
2017-Nov-18 08:56N 55°51' W 001°37'813.4
2017-Nov-18 08:19N 55°58' W 001°43'513.6
2017-Nov-18 07:58N 56°02' W 001°47'613.8
2017-Nov-18 07:31N 56°08' W 001°52'713.8
2017-Nov-18 07:01N 56°14' W 001°57'713.8
2017-Nov-18 06:30N 56°21' W 002°03'713.5
2017-Nov-18 06:00N 56°27' W 002°07'713.4
2017-Nov-18 05:30N 56°33' W 002°05'713.4
2017-Nov-18 04:58N 56°41' W 002°02'1613.6
2017-Nov-18 03:48N 56°56' W 001°56'413.9
2017-Nov-18 03:30N 56°60' W 001°54'714.2
2017-Nov-18 03:00N 57°07' W 001°51'714.3
2017-Nov-18 02:30N 57°14' W 001°47'714.5
2017-Nov-18 02:00N 57°21' W 001°44'714.5
2017-Nov-18 01:30N 57°28' W 001°40'815.1
2017-Nov-18 01:00N 57°35' W 001°43'815.6
2017-Nov-18 00:30N 57°42' W 001°48'815.0
2017-Nov-18 00:00N 57°49' W 001°56'  
2017-Nov-13 00:28N 52°38' E 003°47'3 7.0
2017-Nov-13 00:00N 52°36' E 003°52'3 6.3
2017-Nov-12 23:29N 52°34' E 003°56'3 6.3
2017-Nov-12 23:00N 52°33' E 004°01'3 7.0
2017-Nov-12 22:30N 52°32' E 004°06'4 7.4
2017-Nov-12 22:00N 52°31' E 004°12'4 7.4
2017-Nov-12 21:30N 52°30' E 004°18'4 7.8
2017-Nov-12 21:00N 52°30' E 004°24'3 6.7
2017-Nov-12 20:30N 52°29' E 004°30'4 7.3
2017-Nov-12 20:00N 52°28' E 004°36'1 1.9
2017-Nov-12 19:30N 52°28' E 004°37'2 3.6
2017-Nov-12 19:00N 52°28' E 004°40'0 0.0
2017-Nov-12 18:28N 52°28' E 004°40'0 0.0
2017-Nov-12 17:58N 52°28' E 004°40'0 0.0
2017-Nov-12 17:28N 52°28' E 004°40'0 0.0
2017-Nov-12 16:58N 52°28' E 004°40'0 0.0
2017-Nov-12 16:28N 52°28' E 004°40'0 0.0
2017-Nov-12 15:58N 52°28' E 004°40'0 0.0
2017-Nov-12 15:28N 52°28' E 004°40'0 0.0
2017-Nov-12 14:58N 52°28' E 004°40'0 0.0
2017-Nov-12 14:28N 52°28' E 004°40'0 0.0
2017-Nov-12 13:58N 52°28' E 004°40'0 0.0
2017-Nov-12 13:25N 52°28' E 004°40'0 0.0
2017-Nov-12 12:58N 52°28' E 004°40'0 0.0
2017-Nov-12 12:28N 52°28' E 004°40'0 0.0
2017-Nov-12 11:58N 52°28' E 004°40'0 0.0
2017-Nov-12 11:28N 52°28' E 004°40'0 0.0
2017-Nov-12 10:55N 52°28' E 004°40'0 0.0
2017-Nov-12 10:28N 52°28' E 004°40'0 0.0
2017-Nov-12 09:58N 52°28' E 004°40'0 0.0
2017-Nov-12 09:28N 52°28' E 004°40'0 0.0
2017-Nov-12 08:58N 52°28' E 004°40'0 0.0
2017-Nov-12 08:28N 52°28' E 004°40'0 0.0
2017-Nov-12 07:58N 52°28' E 004°40'0 0.0
2017-Nov-12 07:28N 52°28' E 004°40'0 0.0
2017-Nov-12 06:55N 52°28' E 004°40'0 0.0
2017-Nov-12 06:28N 52°28' E 004°40'0 0.0
2017-Nov-12 05:58N 52°28' E 004°40'0 0.0
2017-Nov-12 05:25N 52°28' E 004°40'0 0.0
2017-Nov-12 04:58N 52°28' E 004°40'0 0.0
2017-Nov-12 04:28N 52°28' E 004°40'0 0.0
2017-Nov-12 03:58N 52°28' E 004°40'0 0.0
2017-Nov-12 03:28N 52°28' E 004°40'0 0.0
2017-Nov-12 02:58N 52°28' E 004°40'0 0.0
2017-Nov-12 02:25N 52°28' E 004°40'0 0.0
2017-Nov-12 01:58N 52°28' E 004°40'0 0.0
2017-Nov-12 01:28N 52°28' E 004°40'0 0.0
2017-Nov-12 00:58N 52°28' E 004°40'0 0.0
2017-Nov-12 00:28N 52°28' E 004°40'0 0.0
2017-Nov-11 23:58N 52°28' E 004°40'0 0.0
2017-Nov-11 23:25N 52°28' E 004°40'0 0.0
2017-Nov-11 22:58N 52°28' E 004°40'0 0.0
2017-Nov-11 22:28N 52°28' E 004°40'0 0.0
2017-Nov-11 21:58N 52°28' E 004°40'0 0.0
2017-Nov-11 21:28N 52°28' E 004°40'0 0.0
2017-Nov-11 20:58N 52°28' E 004°40'0 0.0
2017-Nov-11 20:25N 52°28' E 004°40'0 0.0
2017-Nov-11 19:28N 52°28' E 004°40'0 0.0
2017-Nov-11 18:58N 52°28' E 004°40'0 0.0
2017-Nov-11 18:28N 52°28' E 004°40'0 0.0
2017-Nov-11 17:58N 52°28' E 004°40'0 0.0
2017-Nov-11 17:28N 52°28' E 004°40'0 0.0
2017-Nov-11 16:58N 52°28' E 004°40'0 0.0
2017-Nov-11 16:25N 52°28' E 004°40'0 0.0
2017-Nov-11 15:58N 52°28' E 004°40'0 0.0
2017-Nov-11 15:28N 52°28' E 004°40'0 0.0
2017-Nov-11 14:58N 52°28' E 004°40'0 0.0
2017-Nov-11 14:28N 52°28' E 004°40'0 0.0
2017-Nov-11 13:58N 52°28' E 004°40'0 0.0
2017-Nov-11 13:28N 52°28' E 004°40'0 0.0
2017-Nov-11 12:55N 52°28' E 004°40'0 0.0
2017-Nov-11 12:19N 52°28' E 004°40'0 0.0
2017-Nov-11 11:58N 52°28' E 004°40'0 0.0
2017-Nov-11 11:28N 52°28' E 004°40'0 0.0
2017-Nov-11 10:58N 52°28' E 004°40'0 0.0
2017-Nov-11 10:28N 52°28' E 004°40'0 0.0
2017-Nov-11 09:58N 52°28' E 004°40'0 0.0
2017-Nov-11 09:28N 52°28' E 004°40'0 0.0
2017-Nov-11 08:58N 52°28' E 004°40'0 0.0
2017-Nov-11 08:28N 52°28' E 004°40'0 0.0
2017-Nov-11 07:58N 52°28' E 004°40'0 0.0
2017-Nov-11 07:28N 52°28' E 004°40'0 0.0
2017-Nov-11 06:58N 52°28' E 004°40'0 0.0
2017-Nov-11 06:28N 52°28' E 004°40'0 0.0
2017-Nov-11 05:58N 52°28' E 004°40'0 0.0
2017-Nov-11 05:28N 52°28' E 004°40'0 0.0
2017-Nov-11 04:58N 52°28' E 004°40'0 0.0
2017-Nov-11 04:28N 52°28' E 004°40'0 0.0
2017-Nov-11 03:58N 52°28' E 004°40'0 0.0
2017-Nov-11 03:28N 52°28' E 004°40'0 0.0
2017-Nov-11 02:58N 52°28' E 004°40'0 0.0
2017-Nov-11 02:28N 52°28' E 004°40'0 0.0
2017-Nov-11 01:58N 52°28' E 004°40'0 0.0
2017-Nov-11 01:28N 52°28' E 004°40'0 0.0
2017-Nov-11 00:58N 52°28' E 004°40'0 0.0
2017-Nov-11 00:28N 52°28' E 004°40'0 0.0
2017-Nov-10 23:58N 52°28' E 004°40'0 0.0
2017-Nov-10 23:28N 52°28' E 004°40'0 0.3
2017-Nov-10 23:00N 52°28' E 004°40'2 4.2
2017-Nov-10 22:30N 52°28' E 004°36'0 0.0
2017-Nov-10 22:01N 52°28' E 004°36'2 4.9
2017-Nov-10 21:30N 52°28' E 004°32'510.7
2017-Nov-10 21:00N 52°29' E 004°24'3 5.5
2017-Nov-10 20:31N 52°27' E 004°20'3 5.6
2017-Nov-10 20:00N 52°29' E 004°16'510.9
2017-Nov-10 19:30N 52°29' E 004°07'713.6
2017-Nov-10 19:00N 52°27' E 003°56'713.4
2017-Nov-10 18:30N 52°26' E 003°45'6913.4
2017-Nov-10 13:21N 52°46' E 001°57'515.8
2017-Nov-10 13:00N 52°49' E 001°49'816.1
2017-Nov-10 12:30N 52°54' E 001°39'816.1
2017-Nov-10 12:00N 53°00' E 001°31'815.5
2017-Nov-10 11:30N 53°06' E 001°22'815.5
2017-Nov-10 11:00N 53°12' E 001°13'5414.9
2017-Nov-10 07:21N 53°54' E 000°15'615.1
2017-Nov-10 06:59N 53°59' E 000°11'714.7
2017-Nov-10 06:30N 54°05' E 000°06'714.4
2017-Nov-10 06:00N 54°11' W 000°01'714.0
2017-Nov-10 05:30N 54°17' W 000°07'713.6
2017-Nov-10 05:00N 54°23' W 000°14'713.2
2017-Nov-10 04:31N 54°28' W 000°21'713.1
2017-Nov-10 04:00N 54°33' W 000°27'1712.9
2017-Nov-10 02:41N 54°46' W 000°46'212.8
2017-Nov-10 02:30N 54°48' W 000°49'612.4
2017-Nov-10 02:00N 54°53' W 000°55'912.7
2017-Nov-10 01:19N 55°01' W 000°60'412.6
2017-Nov-10 01:00N 55°05' W 001°02'912.6
2017-Nov-10 00:18N 55°14' W 001°08'412.6
2017-Nov-09 23:59N 55°18' W 001°10'612.7
2017-Nov-09 23:30N 55°23' W 001°13'912.4
2017-Nov-09 22:48N 55°32' W 001°18'512.7
2017-Nov-09 22:26N 55°36' W 001°19'612.6
2017-Nov-09 21:58N 55°42' W 001°20'7412.9
2017-Nov-09 16:17N 56°55' W 001°38'714.0
2017-Nov-09 15:48N 57°02' W 001°39'414.1
2017-Nov-09 15:29N 57°06' W 001°40'714.3
2017-Nov-09 14:59N 57°13' W 001°41'1014.2
2017-Nov-09 14:17N 57°23' W 001°40'414.2
2017-Nov-09 14:00N 57°27' W 001°39'714.1
2017-Nov-09 13:30N 57°34' W 001°38'713.4
2017-Nov-09 13:00N 57°41' W 001°37'713.4
2017-Nov-09 12:31N 57°46' W 001°45'813.1
2017-Nov-09 11:56N 57°52' W 001°54'4713.0
2017-Nov-09 08:20N 58°30' W 002°45'410.7
2017-Nov-09 07:57N 58°34' W 002°43'511.1
2017-Nov-09 07:30N 58°38' W 002°39'  

Dump ship's entire track history